createdAt,value
2018-08-24T00:01:32.215Z,10.43
2018-08-24T00:04:04.818Z,10.43
2018-08-24T00:06:33.168Z,10.33
2018-08-24T00:09:01.539Z,8.40
2018-08-24T00:11:29.891Z,11.17
2018-08-24T00:13:58.705Z,9.23
2018-08-24T00:16:33.048Z,8.33
2018-08-24T00:19:01.398Z,10.03
2018-08-24T00:21:29.715Z,7.73
2018-08-24T00:23:58.064Z,9.67
2018-08-24T00:26:26.380Z,8.27
2018-08-24T00:28:55.815Z,10.17
2018-08-24T00:31:24.740Z,10.13
2018-08-24T00:33:53.339Z,8.17
2018-08-24T00:36:23.342Z,9.17
2018-08-24T00:38:51.720Z,8.70
2018-08-24T00:41:20.112Z,9.10
2018-08-24T00:43:48.596Z,7.93
2018-08-24T00:46:16.948Z,10.20
2018-08-24T00:48:45.763Z,9.17
2018-08-24T00:51:14.082Z,7.90
2018-08-24T00:53:42.408Z,10.13
2018-08-24T00:56:11.735Z,10.57
2018-08-24T00:58:40.399Z,9.47
2018-08-24T01:01:09.309Z,8.20
2018-08-24T01:03:38.084Z,9.27
2018-08-24T01:06:07.049Z,8.07
2018-08-24T01:08:35.789Z,8.77
2018-08-24T01:11:04.342Z,9.87
2018-08-24T01:13:32.820Z,9.33
2018-08-24T01:16:02.256Z,7.87
2018-08-24T01:18:36.025Z,8.73
2018-08-24T01:21:04.613Z,8.50
2018-08-24T01:23:34.643Z,9.43
2018-08-24T01:26:03.303Z,9.43
2018-08-24T01:28:32.610Z,9.33
2018-08-24T01:31:04.242Z,8.97
2018-08-24T01:33:32.966Z,10.57
2018-08-24T01:36:01.298Z,11.20
2018-08-24T01:38:29.640Z,11.33
2018-08-24T01:40:58.907Z,18.57
2018-08-24T01:43:27.225Z,17.23
2018-08-24T01:46:01.882Z,27.10
2018-08-24T01:48:30.229Z,26.13
2018-08-24T01:50:59.564Z,35.90
2018-08-24T01:53:27.922Z,31.17
2018-08-24T01:55:56.556Z,28.40
2018-08-24T01:58:24.983Z,25.27
2018-08-24T02:00:53.342Z,29.77
2018-08-24T02:03:22.303Z,30.50
2018-08-24T02:05:50.624Z,28.70
2018-08-24T02:08:18.992Z,70.77
2018-08-24T02:10:47.336Z,57.93
2018-08-24T02:13:21.150Z,69.77
2018-08-24T02:15:49.499Z,68.13
2018-08-24T02:19:27.008Z,106.27
2018-08-24T02:22:00.948Z,92.27
2018-08-24T02:24:29.283Z,94.30
2018-08-24T02:26:57.636Z,96.47
2018-08-24T02:29:25.977Z,91.70
2018-08-24T02:31:54.592Z,91.60
2018-08-24T02:34:22.933Z,80.67
2018-08-24T02:36:51.347Z,81.03
2018-08-24T02:39:20.513Z,81.00
2018-08-24T02:41:48.909Z,83.67
2018-08-24T02:44:17.338Z,86.37
2018-08-24T02:46:45.687Z,84.50
2018-08-24T02:49:14.039Z,77.73
2018-08-24T02:51:43.400Z,71.00
2018-08-24T02:54:12.626Z,72.87
2018-08-24T02:56:41.413Z,64.77
2018-08-24T02:59:09.732Z,58.30
2018-08-24T03:01:38.115Z,58.37
2018-08-24T03:04:06.672Z,53.83
2018-08-24T03:06:35.009Z,50.50
2018-08-24T03:09:03.440Z,55.80
2018-08-24T03:11:31.832Z,56.47
2018-08-24T03:14:00.185Z,58.03
2018-08-24T03:16:28.706Z,55.50
2018-08-24T03:18:56.979Z,53.57
2018-08-24T03:21:25.339Z,63.20
2018-08-24T03:23:53.691Z,56.00
2018-08-24T03:26:22.041Z,49.47
2018-08-24T03:28:50.789Z,50.57
2018-08-24T03:31:19.133Z,53.03
2018-08-24T03:33:47.482Z,52.00
2018-08-24T03:36:15.820Z,53.37
2018-08-24T03:38:44.169Z,47.60
2018-08-24T03:41:12.483Z,48.17
2018-08-24T03:43:40.899Z,54.57
2018-08-24T03:46:09.243Z,50.20
2018-08-24T03:48:37.601Z,50.93
2018-08-24T03:51:05.960Z,47.47
2018-08-24T03:53:34.308Z,46.57
2018-08-24T03:56:02.648Z,43.07
2018-08-24T03:58:30.998Z,45.13
2018-08-24T04:00:59.812Z,39.20
2018-08-24T04:03:29.216Z,43.40
2018-08-24T04:05:57.579Z,43.17
2018-08-24T04:08:26.063Z,43.83
2018-08-24T04:10:54.936Z,37.83
2018-08-24T04:13:23.286Z,39.37
2018-08-24T04:15:51.624Z,41.13
2018-08-24T04:18:19.945Z,45.27
2018-08-24T04:20:48.319Z,42.40
2018-08-24T04:23:16.673Z,43.80
2018-08-24T04:25:45.056Z,40.73
2018-08-24T04:28:13.402Z,39.27
2018-08-24T04:30:41.779Z,37.57
2018-08-24T04:33:10.175Z,33.33
2018-08-24T04:35:38.567Z,30.87
2018-08-24T04:38:06.929Z,27.10
2018-08-24T04:40:35.316Z,29.13
2018-08-24T04:43:03.735Z,29.07
2018-08-24T04:45:32.143Z,26.13
2018-08-24T04:48:00.494Z,25.07
2018-08-24T04:50:29.283Z,21.37
2018-08-24T04:52:57.661Z,25.93
2018-08-24T04:55:26.007Z,22.63
2018-08-24T04:57:54.352Z,24.77
2018-08-24T05:00:23.277Z,20.63
2018-08-24T05:02:51.657Z,28.37
2018-08-24T05:05:19.993Z,23.10
2018-08-24T05:07:48.349Z,19.90
2018-08-24T05:10:16.725Z,23.87
2018-08-24T05:12:45.088Z,22.27
2018-08-24T05:15:13.464Z,23.03
2018-08-24T05:17:41.891Z,24.37
2018-08-24T05:20:10.241Z,24.00
2018-08-24T05:22:38.621Z,26.07
2018-08-24T05:25:07.230Z,21.50
2018-08-24T05:27:35.612Z,24.27
2018-08-24T05:30:03.957Z,21.67
2018-08-24T05:32:32.339Z,27.03
2018-08-24T05:35:00.746Z,22.37
2018-08-24T05:37:29.096Z,29.03
2018-08-24T05:39:57.475Z,26.47
2018-08-24T05:42:25.825Z,30.10
2018-08-24T05:44:54.195Z,27.73
2018-08-24T05:47:22.566Z,31.30
2018-08-24T05:49:50.919Z,27.33
2018-08-24T05:52:19.406Z,27.93
2018-08-24T05:54:47.780Z,28.20
2018-08-24T05:57:16.108Z,28.00
2018-08-24T05:59:44.537Z,26.87
2018-08-24T06:02:12.892Z,27.00
2018-08-24T06:04:41.259Z,28.30
2018-08-24T06:07:09.651Z,28.87
2018-08-24T06:09:37.995Z,25.77
2018-08-24T06:12:06.408Z,25.10
2018-08-24T06:14:34.819Z,31.20
2018-08-24T06:17:08.591Z,25.57
2018-08-24T06:19:37.484Z,27.67
2018-08-24T06:22:05.960Z,24.53
2018-08-24T06:24:35.911Z,26.67
2018-08-24T06:27:04.222Z,25.10
2018-08-24T06:29:32.573Z,27.40
2018-08-24T06:32:01.119Z,20.13
2018-08-24T06:34:30.833Z,23.97
2018-08-24T06:36:59.212Z,25.37
2018-08-24T06:39:27.554Z,22.13
2018-08-24T06:41:56.179Z,22.90
2018-08-24T06:44:24.602Z,19.10
2018-08-24T06:46:53.031Z,20.83
2018-08-24T06:49:22.361Z,18.43
2018-08-24T06:51:50.759Z,22.17
2018-08-24T06:54:19.118Z,20.10
2018-08-24T06:56:47.469Z,14.73
2018-08-24T06:59:15.849Z,17.73
2018-08-24T07:01:44.190Z,17.00
2018-08-24T07:04:12.572Z,20.03
2018-08-24T07:06:41.048Z,17.47
2018-08-24T07:09:09.877Z,17.90
2018-08-24T07:11:38.280Z,17.90
2018-08-24T07:14:06.614Z,16.73
2018-08-24T07:16:34.944Z,23.87
2018-08-24T07:19:03.289Z,16.13
2018-08-24T07:21:31.670Z,13.63
2018-08-24T07:24:00.024Z,13.03
2018-08-24T07:26:28.433Z,16.13
2018-08-24T07:28:56.787Z,11.97
2018-08-24T07:31:25.158Z,9.97
2018-08-24T07:33:53.545Z,10.53
2018-08-24T07:36:21.924Z,11.03
2018-08-24T07:38:50.341Z,11.20
2018-08-24T07:41:18.822Z,7.83
2018-08-24T07:43:47.257Z,8.50
2018-08-24T07:46:15.684Z,8.20
2018-08-24T07:48:44.040Z,10.53
2018-08-24T07:51:12.367Z,10.17
2018-08-24T07:53:40.750Z,9.80
2018-08-24T07:56:09.097Z,11.13
2018-08-24T07:58:37.428Z,11.40
2018-08-24T08:01:05.956Z,13.13
2018-08-24T08:03:34.336Z,10.70
2018-08-24T08:06:02.684Z,10.20
2018-08-24T08:08:31.024Z,9.43
2018-08-24T08:10:59.559Z,10.53
2018-08-24T08:13:27.907Z,13.07
2018-08-24T08:15:56.303Z,11.07
2018-08-24T08:18:24.697Z,9.60
2018-08-24T08:20:53.118Z,11.47
2018-08-24T08:23:21.454Z,13.80
2018-08-24T08:25:49.801Z,13.17
2018-08-24T08:28:18.180Z,15.83
2018-08-24T08:30:46.560Z,12.17
2018-08-24T08:33:14.910Z,15.30
2018-08-24T08:35:43.259Z,13.33
2018-08-24T08:38:11.627Z,11.53
2018-08-24T08:40:39.975Z,15.17
2018-08-24T08:43:08.331Z,12.93
2018-08-24T08:45:36.704Z,15.90
2018-08-24T08:48:05.042Z,14.80
2018-08-24T08:50:33.386Z,13.93
2018-08-24T08:53:01.732Z,11.57
2018-08-24T08:55:30.091Z,11.20
2018-08-24T08:57:58.432Z,13.00
2018-08-24T09:00:26.794Z,10.80
2018-08-24T09:02:55.176Z,12.17
2018-08-24T09:05:23.561Z,7.90
2018-08-24T09:07:51.911Z,8.90
2018-08-24T09:10:20.259Z,8.13
2018-08-24T09:12:48.655Z,6.00
2018-08-24T09:15:17.076Z,5.57
2018-08-24T09:17:50.829Z,6.63
2018-08-24T09:20:24.559Z,6.93
2018-08-24T09:22:58.240Z,7.23
2018-08-24T09:25:32.011Z,6.93
2018-08-24T09:28:05.739Z,10.23
2018-08-24T09:30:39.316Z,5.53
2018-08-24T09:33:07.729Z,5.10
2018-08-24T09:35:36.061Z,5.13
2018-08-24T09:38:04.736Z,9.13
2018-08-24T09:40:38.519Z,10.13
2018-08-24T09:43:12.359Z,5.60
2018-08-24T09:45:40.604Z,4.47
2018-08-24T09:48:14.315Z,8.17
2018-08-24T09:50:47.978Z,5.77
2018-08-24T09:53:21.721Z,8.87
2018-08-24T09:55:50.063Z,7.77
2018-08-24T09:58:18.409Z,7.60
2018-08-24T10:00:52.177Z,5.87
2018-08-24T10:04:24.657Z,5.13
2018-08-24T10:06:58.365Z,7.37
2018-08-24T10:09:26.726Z,8.43
2018-08-24T10:11:55.053Z,12.37
2018-08-24T10:14:23.428Z,7.37
2018-08-24T10:16:51.757Z,11.07
2018-08-24T10:19:20.086Z,10.60
2018-08-24T10:21:48.435Z,10.63
2018-08-24T10:24:16.783Z,8.20
2018-08-24T10:26:45.190Z,9.50
2018-08-24T10:29:13.550Z,5.53
2018-08-24T10:31:41.872Z,6.73
2018-08-24T10:34:10.184Z,4.70
2018-08-24T10:36:38.586Z,12.97
2018-08-24T10:39:08.540Z,10.10
2018-08-24T10:41:36.873Z,6.57
2018-08-24T10:44:05.206Z,13.63
2018-08-24T10:46:33.556Z,11.83
2018-08-24T10:49:01.882Z,9.50
2018-08-24T10:51:30.205Z,8.77
2018-08-24T10:53:58.524Z,9.33
2018-08-24T10:56:26.864Z,12.70
2018-08-24T10:58:55.212Z,5.90
2018-08-24T11:01:23.625Z,7.07
2018-08-24T11:03:51.932Z,6.40
2018-08-24T11:06:20.322Z,12.07
2018-08-24T11:08:48.655Z,15.70
2018-08-24T11:11:16.979Z,14.73
2018-08-24T11:13:45.346Z,6.63
2018-08-24T11:16:13.844Z,6.40
2018-08-24T11:18:42.154Z,9.37
2018-08-24T11:21:10.481Z,7.27
2018-08-24T11:23:38.949Z,4.33
2018-08-24T11:26:07.277Z,10.23
2018-08-24T11:28:35.625Z,5.83
2018-08-24T11:31:03.963Z,9.53
2018-08-24T11:33:32.316Z,8.50
2018-08-24T11:36:00.757Z,6.33
2018-08-24T11:38:29.005Z,7.77
2018-08-24T11:40:57.510Z,8.37
2018-08-24T11:43:25.864Z,8.20
2018-08-24T11:45:54.196Z,5.33
2018-08-24T11:48:22.521Z,8.53
2018-08-24T11:50:50.865Z,6.73
2018-08-24T11:53:19.209Z,7.10
2018-08-24T11:55:47.555Z,7.23
2018-08-24T11:58:15.904Z,6.40
2018-08-24T12:00:44.282Z,8.23
2018-08-24T12:03:12.619Z,8.07
2018-08-24T12:05:40.969Z,7.50
2018-08-24T12:08:09.513Z,6.33
2018-08-24T12:10:37.693Z,8.10
2018-08-24T12:13:06.043Z,9.57
2018-08-24T12:15:34.385Z,8.10
2018-08-24T12:18:03.097Z,6.10
2018-08-24T12:20:31.417Z,7.33
2018-08-24T12:22:59.796Z,6.47
2018-08-24T12:25:28.131Z,8.40
2018-08-24T12:27:56.522Z,9.93
2018-08-24T12:30:24.864Z,7.10
2018-08-24T12:32:53.209Z,6.70
2018-08-24T12:35:21.548Z,8.70
2018-08-24T12:37:49.903Z,6.73
2018-08-24T12:40:18.245Z,8.97
2018-08-24T12:42:46.630Z,8.93
2018-08-24T12:45:15.012Z,13.30
2018-08-24T12:47:43.345Z,9.60
2018-08-24T12:50:11.760Z,11.80
2018-08-24T12:52:40.141Z,13.83
2018-08-24T12:55:08.580Z,7.93
2018-08-24T12:57:36.944Z,8.47
2018-08-24T13:00:05.757Z,9.63
2018-08-24T13:02:34.055Z,9.00
2018-08-24T13:05:02.387Z,10.17
2018-08-24T13:07:30.755Z,9.73
2018-08-24T13:09:59.099Z,10.27
2018-08-24T13:12:27.437Z,10.37
2018-08-24T13:14:55.787Z,11.53
2018-08-24T13:17:24.129Z,8.33
2018-08-24T13:19:52.450Z,9.07
2018-08-24T13:22:20.783Z,9.63
2018-08-24T13:24:49.097Z,7.73
2018-08-24T13:27:17.460Z,6.67
2018-08-24T13:29:45.786Z,9.63
2018-08-24T13:32:14.121Z,9.77
2018-08-24T13:34:43.458Z,10.07
2018-08-24T13:37:11.977Z,9.77
2018-08-24T13:39:40.356Z,11.33
2018-08-24T13:42:08.692Z,12.93
2018-08-24T13:44:37.452Z,9.93
2018-08-24T13:47:05.860Z,9.07
2018-08-24T13:49:34.327Z,8.40
2018-08-24T13:52:02.659Z,8.27
2018-08-24T13:54:31.018Z,8.37
2018-08-24T13:56:59.357Z,8.40
2018-08-24T13:59:27.822Z,12.33
2018-08-24T14:01:56.500Z,9.20
2018-08-24T14:04:24.909Z,7.90
2018-08-24T14:06:53.272Z,10.30
2018-08-24T14:09:21.932Z,20.57
2018-08-24T14:11:50.336Z,8.70
2018-08-24T14:14:19.226Z,10.30
2018-08-24T14:16:47.607Z,11.83
2018-08-24T14:19:15.987Z,16.90
2018-08-24T14:21:44.353Z,13.03
2018-08-24T14:24:12.735Z,14.40
2018-08-24T14:26:41.158Z,14.10
2018-08-24T14:29:09.661Z,10.00
2018-08-24T14:31:38.217Z,13.50
2018-08-24T14:34:06.538Z,12.00
2018-08-24T14:36:35.002Z,16.93
2018-08-24T14:39:03.394Z,11.83
2018-08-24T14:41:31.776Z,10.43
2018-08-24T14:44:00.201Z,13.53
2018-08-24T14:46:28.577Z,16.63
2018-08-24T14:48:56.947Z,13.03
2018-08-24T14:51:25.328Z,17.13
2018-08-24T14:53:53.763Z,11.80
2018-08-24T14:56:22.160Z,10.07
2018-08-24T14:58:50.462Z,12.37
2018-08-24T15:01:18.821Z,15.80
2018-08-24T15:03:47.174Z,9.70
2018-08-24T15:06:15.497Z,9.63
2018-08-24T15:08:44.742Z,15.60
2018-08-24T15:11:13.075Z,9.17
2018-08-24T15:13:41.452Z,10.33
2018-08-24T15:16:09.815Z,10.30
2018-08-24T15:18:38.209Z,14.17
2018-08-24T15:21:06.633Z,16.40
2018-08-24T15:23:34.971Z,9.37
2018-08-24T15:26:03.299Z,9.70
2018-08-24T15:28:31.664Z,9.80
2018-08-24T15:31:00.747Z,9.50
2018-08-24T15:33:29.344Z,10.57
2018-08-24T15:35:58.148Z,12.43
2018-08-24T15:38:26.523Z,14.23
2018-08-24T15:40:54.845Z,7.30
2018-08-24T15:43:23.174Z,23.27
2018-08-24T15:45:51.506Z,15.07
2018-08-24T15:48:19.836Z,8.77
2018-08-24T15:50:48.180Z,11.50
2018-08-24T15:53:16.529Z,20.33
2018-08-24T15:55:44.923Z,9.00
2018-08-24T15:58:13.441Z,13.20
2018-08-24T16:00:42.479Z,14.77
2018-08-24T16:03:10.878Z,11.93
2018-08-24T16:05:39.291Z,12.97
2018-08-24T16:08:07.680Z,10.23
2018-08-24T16:10:36.321Z,10.37
2018-08-24T16:13:04.713Z,10.23
2018-08-24T16:15:33.083Z,7.50
2018-08-24T16:18:06.788Z,10.77
2018-08-24T16:20:35.143Z,7.60
2018-08-24T16:23:03.492Z,9.00
2018-08-24T16:25:31.929Z,11.47
2018-08-24T16:28:00.268Z,11.20
2018-08-24T16:30:28.676Z,19.83
2018-08-24T16:32:57.057Z,18.80
2018-08-24T16:35:25.612Z,17.47
2018-08-24T16:37:54.041Z,13.27
2018-08-24T16:40:22.383Z,14.10
2018-08-24T16:42:50.747Z,7.90
2018-08-24T16:45:19.887Z,9.00
2018-08-24T16:47:48.322Z,8.63
2018-08-24T16:50:16.747Z,10.20
2018-08-24T16:52:45.089Z,9.30
2018-08-24T16:55:13.797Z,8.80
2018-08-24T16:57:42.257Z,7.33
2018-08-24T17:00:10.605Z,9.50
2018-08-24T17:02:39.058Z,8.10
2018-08-24T17:05:07.690Z,10.47
2018-08-24T17:07:36.304Z,7.87
2018-08-24T17:10:05.070Z,9.97
2018-08-24T17:12:33.447Z,8.50
2018-08-24T17:15:01.974Z,7.00
2018-08-24T17:17:30.461Z,8.73
2018-08-24T17:19:58.872Z,9.10
2018-08-24T17:22:27.300Z,7.53
2018-08-24T17:24:55.648Z,13.50
2018-08-24T17:27:24.104Z,5.23
2018-08-24T17:29:52.993Z,12.47
2018-08-24T17:32:21.467Z,6.73
2018-08-24T17:34:50.050Z,6.80
2018-08-24T17:37:18.860Z,12.73
2018-08-24T17:39:47.358Z,12.70
2018-08-24T17:42:15.737Z,11.53
2018-08-24T17:44:44.083Z,12.70
2018-08-24T17:47:12.667Z,11.00
2018-08-24T17:49:41.307Z,21.60
2018-08-24T17:52:09.683Z,17.53
2018-08-24T17:54:38.260Z,16.23
2018-08-24T17:57:06.855Z,16.73
2018-08-24T17:59:35.175Z,12.53
2018-08-24T18:02:03.552Z,9.47
2018-08-24T18:04:32.052Z,8.83
2018-08-24T18:07:00.493Z,9.70
2018-08-24T18:09:28.860Z,20.50
2018-08-24T18:11:57.232Z,10.53
2018-08-24T18:14:25.600Z,11.30
2018-08-24T18:16:54.014Z,8.73
2018-08-24T18:19:22.470Z,6.93
2018-08-24T18:21:50.832Z,5.83
2018-08-24T18:24:19.200Z,14.70
2018-08-24T18:26:47.583Z,16.03
2018-08-24T18:29:15.933Z,12.83
2018-08-24T18:31:44.427Z,8.03
2018-08-24T18:34:12.776Z,7.33
2018-08-24T18:36:41.202Z,7.27
2018-08-24T18:39:11.495Z,6.40
2018-08-24T18:41:39.854Z,6.20
2018-08-24T18:44:08.572Z,7.03
2018-08-24T18:46:36.923Z,5.73
2018-08-24T18:49:05.397Z,5.13
2018-08-24T18:51:33.810Z,6.83
2018-08-24T18:54:02.360Z,6.57
2018-08-24T18:56:30.747Z,5.40
2018-08-24T18:58:59.123Z,5.50
2018-08-24T19:01:27.498Z,4.13
2018-08-24T19:03:55.854Z,6.10
2018-08-24T19:06:24.305Z,7.13
2018-08-24T19:08:52.689Z,7.90
2018-08-24T19:12:26.194Z,11.93
2018-08-24T19:14:55.597Z,6.07
2018-08-24T19:17:29.474Z,6.30
2018-08-24T19:20:03.208Z,6.00
2018-08-24T19:22:31.590Z,9.00
2018-08-24T19:25:00.026Z,9.57
2018-08-24T19:27:33.825Z,10.03
2018-08-24T19:30:07.532Z,5.60
2018-08-24T19:32:35.990Z,10.30
2018-08-24T19:35:04.480Z,7.40
2018-08-24T19:37:32.866Z,10.17
2018-08-24T19:40:06.990Z,8.57
2018-08-24T19:42:35.369Z,6.07
2018-08-24T19:45:03.716Z,7.93
2018-08-24T19:47:37.436Z,7.80
2018-08-24T19:50:06.210Z,15.30
2018-08-24T19:52:35.126Z,10.93
2018-08-24T19:55:03.545Z,7.40
2018-08-24T19:57:37.215Z,7.77
2018-08-24T20:00:05.593Z,7.93
2018-08-24T20:02:33.974Z,7.10
2018-08-24T20:05:03.110Z,6.63
2018-08-24T20:07:36.758Z,5.87
2018-08-24T20:10:07.450Z,23.47
2018-08-24T20:12:35.830Z,15.70
2018-08-24T20:15:09.694Z,7.30
2018-08-24T20:17:38.072Z,6.80
2018-08-24T20:20:07.170Z,9.27
2018-08-24T20:22:35.658Z,6.37
2018-08-24T20:25:04.541Z,7.67
2018-08-24T20:27:32.924Z,6.80
2018-08-24T20:30:01.294Z,12.67
2018-08-24T20:32:29.652Z,14.23
2018-08-24T20:34:57.995Z,9.40
2018-08-24T20:37:26.350Z,7.40
2018-08-24T20:39:54.777Z,10.37
2018-08-24T20:42:23.105Z,7.50
2018-08-24T20:44:51.503Z,5.77
2018-08-24T20:47:19.881Z,5.40
2018-08-24T20:49:48.196Z,6.27
2018-08-24T20:52:16.754Z,6.87
2018-08-24T20:54:45.163Z,6.13
2018-08-24T20:57:13.514Z,5.97
2018-08-24T20:59:41.865Z,5.63
2018-08-24T21:02:10.576Z,8.77
2018-08-24T21:04:38.926Z,6.63
2018-08-24T21:07:07.435Z,5.00
2018-08-24T21:09:35.774Z,6.13
2018-08-24T21:12:04.153Z,4.23
2018-08-24T21:14:32.566Z,4.37
2018-08-24T21:17:00.881Z,5.00
2018-08-24T21:19:29.280Z,5.73
2018-08-24T21:21:57.679Z,4.80
2018-08-24T21:24:26.403Z,4.83
2018-08-24T21:26:54.735Z,6.87
2018-08-24T21:29:24.084Z,5.93
2018-08-24T21:31:52.481Z,7.17
2018-08-24T21:34:21.347Z,5.47
2018-08-24T21:36:49.687Z,6.60
2018-08-24T21:39:18.034Z,5.97
2018-08-24T21:41:46.383Z,5.30
2018-08-24T21:44:14.739Z,5.17
2018-08-24T21:46:43.101Z,5.20
2018-08-24T21:49:11.405Z,4.33
2018-08-24T21:51:39.764Z,5.43
2018-08-24T21:54:08.224Z,5.93
2018-08-24T21:56:36.545Z,6.23
2018-08-24T21:59:04.904Z,13.00
2018-08-24T22:01:33.281Z,15.27
2018-08-24T22:04:01.654Z,8.20
2018-08-24T22:06:29.995Z,4.53
2018-08-24T22:08:58.336Z,8.50
2018-08-24T22:11:26.688Z,6.30
2018-08-24T22:13:55.012Z,6.23
2018-08-24T22:16:23.342Z,8.33
2018-08-24T22:18:51.648Z,3.63
2018-08-24T22:21:20.037Z,4.07
2018-08-24T22:23:48.384Z,4.73
2018-08-24T22:26:16.784Z,5.07
2018-08-24T22:28:45.108Z,4.57
2018-08-24T22:31:13.449Z,6.10
2018-08-24T22:33:41.778Z,6.93
2018-08-24T22:36:10.097Z,6.50
2018-08-24T22:38:38.448Z,14.93
2018-08-24T22:41:07.003Z,8.27
2018-08-24T22:43:36.052Z,3.90
2018-08-24T22:46:04.943Z,5.67
2018-08-24T22:48:33.948Z,5.40
2018-08-24T22:51:02.494Z,7.27
2018-08-24T22:53:30.845Z,5.90
2018-08-24T22:55:59.415Z,4.93
2018-08-24T22:58:28.077Z,4.43
2018-08-24T23:00:56.718Z,6.33
2018-08-24T23:03:25.106Z,6.73
2018-08-24T23:05:53.446Z,6.87
2018-08-24T23:08:21.879Z,7.57
2018-08-24T23:10:50.267Z,4.23
2018-08-24T23:13:18.604Z,4.03
2018-08-24T23:15:46.952Z,5.73
2018-08-24T23:18:15.302Z,3.33
2018-08-24T23:20:43.664Z,5.27
2018-08-24T23:23:12.048Z,4.00
2018-08-24T23:25:40.411Z,4.93
2018-08-24T23:28:08.797Z,5.47
2018-08-24T23:30:37.140Z,3.87
2018-08-24T23:33:05.536Z,3.47
2018-08-24T23:35:33.869Z,5.87
2018-08-24T23:38:02.332Z,4.30
2018-08-24T23:40:30.677Z,6.57
2018-08-24T23:42:59.040Z,7.13
2018-08-24T23:45:27.386Z,5.83
2018-08-24T23:47:55.732Z,4.17
2018-08-24T23:50:24.072Z,5.27
2018-08-24T23:52:52.450Z,3.83
2018-08-24T23:55:20.784Z,5.30
2018-08-24T23:57:49.164Z,4.83
